sensor_id;sensor_type;location;lat;lon;timestamp;P1;durP1;ratioP1;P2;durP2;ratioP2
21987;SDS011;11158;53.404;-1.510;2023-05-07T00:01:59;12.20;;;11.00;;
21987;SDS011;11158;53.404;-1.510;2023-05-07T00:04:44;12.45;;;11.15;;
21987;SDS011;11158;53.404;-1.510;2023-05-07T00:07:29;13.25;;;11.73;;
21987;SDS011;11158;53.404;-1.510;2023-05-07T00:10:13;13.88;;;12.57;;
21987;SDS011;11158;53.404;-1.510;2023-05-07T00:12:57;14.38;;;12.98;;
21987;SDS011;11158;53.404;-1.510;2023-05-07T00:15:41;13.75;;;12.40;;
21987;SDS011;11158;53.404;-1.510;2023-05-07T00:18:25;13.35;;;12.05;;
21987;SDS011;11158;53.404;-1.510;2023-05-07T00:21:09;15.50;;;13.93;;
21987;SDS011;11158;53.404;-1.510;2023-05-07T00:23:53;14.07;;;12.60;;
21987;SDS011;11158;53.404;-1.510;2023-05-07T00:26:38;15.18;;;13.68;;
21987;SDS011;11158;53.404;-1.510;2023-05-07T00:29:22;15.38;;;13.75;;
21987;SDS011;11158;53.404;-1.510;2023-05-07T00:32:06;14.52;;;12.98;;
21987;SDS011;11158;53.404;-1.510;2023-05-07T00:34:51;15.07;;;13.48;;
21987;SDS011;11158;53.404;-1.510;2023-05-07T00:37:35;16.98;;;14.55;;
21987;SDS011;11158;53.404;-1.510;2023-05-07T00:40:19;16.80;;;15.07;;
21987;SDS011;11158;53.404;-1.510;2023-05-07T00:43:03;18.17;;;14.70;;
21987;SDS011;11158;53.404;-1.510;2023-05-07T00:45:47;16.73;;;14.13;;
21987;SDS011;11158;53.404;-1.510;2023-05-07T00:48:32;15.10;;;13.60;;
21987;SDS011;11158;53.404;-1.510;2023-05-07T00:51:19;16.70;;;14.93;;
21987;SDS011;11158;53.404;-1.510;2023-05-07T00:54:04;15.77;;;14.27;;
21987;SDS011;11158;53.404;-1.510;2023-05-07T00:56:49;16.17;;;14.35;;
21987;SDS011;11158;53.404;-1.510;2023-05-07T00:59:32;17.10;;;14.43;;
21987;SDS011;11158;53.404;-1.510;2023-05-07T01:02:17;16.83;;;14.30;;
21987;SDS011;11158;53.404;-1.510;2023-05-07T01:05:01;18.52;;;15.10;;
21987;SDS011;11158;53.404;-1.510;2023-05-07T01:07:49;19.90;;;15.38;;
21987;SDS011;11158;53.404;-1.510;2023-05-07T01:10:35;16.50;;;14.80;;
21987;SDS011;11158;53.404;-1.510;2023-05-07T01:13:19;17.55;;;15.63;;
21987;SDS011;11158;53.404;-1.510;2023-05-07T01:16:04;16.33;;;14.63;;
21987;SDS011;11158;53.404;-1.510;2023-05-07T01:18:49;20.27;;;15.15;;
21987;SDS011;11158;53.404;-1.510;2023-05-07T01:21:33;18.98;;;15.80;;
21987;SDS011;11158;53.404;-1.510;2023-05-07T01:24:20;18.45;;;15.88;;
21987;SDS011;11158;53.404;-1.510;2023-05-07T01:27:05;16.95;;;15.23;;
21987;SDS011;11158;53.404;-1.510;2023-05-07T01:29:49;17.85;;;15.95;;
21987;SDS011;11158;53.404;-1.510;2023-05-07T01:32:44;19.35;;;17.25;;
21987;SDS011;11158;53.404;-1.510;2023-05-07T01:35:34;19.23;;;16.50;;
21987;SDS011;11158;53.404;-1.510;2023-05-07T01:38:22;17.80;;;15.98;;
21987;SDS011;11158;53.404;-1.510;2023-05-07T01:41:07;16.70;;;14.77;;
21987;SDS011;11158;53.404;-1.510;2023-05-07T01:43:51;18.23;;;16.23;;
21987;SDS011;11158;53.404;-1.510;2023-05-07T01:46:36;19.15;;;15.52;;
21987;SDS011;11158;53.404;-1.510;2023-05-07T01:49:21;16.40;;;14.70;;
21987;SDS011;11158;53.404;-1.510;2023-05-07T01:52:09;14.98;;;13.50;;
21987;SDS011;11158;53.404;-1.510;2023-05-07T01:54:55;16.02;;;13.68;;
21987;SDS011;11158;53.404;-1.510;2023-05-07T01:57:39;15.35;;;13.55;;
21987;SDS011;11158;53.404;-1.510;2023-05-07T02:00:23;14.07;;;12.63;;
21987;SDS011;11158;53.404;-1.510;2023-05-07T02:03:08;13.98;;;12.55;;
21987;SDS011;11158;53.404;-1.510;2023-05-07T02:05:52;13.40;;;12.05;;
21987;SDS011;11158;53.404;-1.510;2023-05-07T02:08:36;14.73;;;13.23;;
21987;SDS011;11158;53.404;-1.510;2023-05-07T02:11:20;14.68;;;13.18;;
21987;SDS011;11158;53.404;-1.510;2023-05-07T02:14:04;16.67;;;14.90;;
21987;SDS011;11158;53.404;-1.510;2023-05-07T02:16:49;14.98;;;13.48;;
21987;SDS011;11158;53.404;-1.510;2023-05-07T02:19:33;15.10;;;13.52;;
21987;SDS011;11158;53.404;-1.510;2023-05-07T02:22:17;15.85;;;14.18;;
21987;SDS011;11158;53.404;-1.510;2023-05-07T02:25:01;17.13;;;13.02;;
21987;SDS011;11158;53.404;-1.510;2023-05-07T02:27:45;14.25;;;12.60;;
21987;SDS011;11158;53.404;-1.510;2023-05-07T02:30:29;15.85;;;13.32;;
21987;SDS011;11158;53.404;-1.510;2023-05-07T02:33:13;16.23;;;12.82;;
21987;SDS011;11158;53.404;-1.510;2023-05-07T02:36:04;15.88;;;13.60;;
21987;SDS011;11158;53.404;-1.510;2023-05-07T02:38:50;20.17;;;13.77;;
21987;SDS011;11158;53.404;-1.510;2023-05-07T02:41:34;16.40;;;14.10;;
21987;SDS011;11158;53.404;-1.510;2023-05-07T02:44:18;15.73;;;14.05;;
21987;SDS011;11158;53.404;-1.510;2023-05-07T02:47:02;15.52;;;13.50;;
21987;SDS011;11158;53.404;-1.510;2023-05-07T02:49:46;18.17;;;14.05;;
21987;SDS011;11158;53.404;-1.510;2023-05-07T02:52:30;16.52;;;13.70;;
21987;SDS011;11158;53.404;-1.510;2023-05-07T02:55:14;17.60;;;15.10;;
21987;SDS011;11158;53.404;-1.510;2023-05-07T02:57:58;16.05;;;14.23;;
21987;SDS011;11158;53.404;-1.510;2023-05-07T03:00:42;18.00;;;14.13;;
21987;SDS011;11158;53.404;-1.510;2023-05-07T03:03:26;17.25;;;14.75;;
21987;SDS011;11158;53.404;-1.510;2023-05-07T03:06:10;19.25;;;14.30;;
21987;SDS011;11158;53.404;-1.510;2023-05-07T03:08:54;16.67;;;14.25;;
21987;SDS011;11158;53.404;-1.510;2023-05-07T03:11:38;15.77;;;13.70;;
21987;SDS011;11158;53.404;-1.510;2023-05-07T03:14:22;15.65;;;13.85;;
21987;SDS011;11158;53.404;-1.510;2023-05-07T03:17:06;15.15;;;13.55;;
21987;SDS011;11158;53.404;-1.510;2023-05-07T03:19:51;14.35;;;12.65;;
21987;SDS011;11158;53.404;-1.510;2023-05-07T03:22:35;16.52;;;13.95;;
21987;SDS011;11158;53.404;-1.510;2023-05-07T03:25:19;15.57;;;13.63;;
21987;SDS011;11158;53.404;-1.510;2023-05-07T03:28:03;15.60;;;12.88;;
21987;SDS011;11158;53.404;-1.510;2023-05-07T03:30:47;16.60;;;14.00;;
21987;SDS011;11158;53.404;-1.510;2023-05-07T03:33:33;16.92;;;12.73;;
21987;SDS011;11158;53.404;-1.510;2023-05-07T03:36:18;14.75;;;12.75;;
21987;SDS011;11158;53.404;-1.510;2023-05-07T03:39:03;17.35;;;14.05;;
21987;SDS011;11158;53.404;-1.510;2023-05-07T03:41:47;17.48;;;14.15;;
21987;SDS011;11158;53.404;-1.510;2023-05-07T03:44:31;17.10;;;13.73;;
21987;SDS011;11158;53.404;-1.510;2023-05-07T03:47:15;15.45;;;12.95;;
21987;SDS011;11158;53.404;-1.510;2023-05-07T03:49:59;17.67;;;14.45;;
21987;SDS011;11158;53.404;-1.510;2023-05-07T03:52:43;16.15;;;13.45;;
21987;SDS011;11158;53.404;-1.510;2023-05-07T03:55:28;19.50;;;14.60;;
21987;SDS011;11158;53.404;-1.510;2023-05-07T03:58:13;19.75;;;14.68;;
21987;SDS011;11158;53.404;-1.510;2023-05-07T04:00:57;17.33;;;14.13;;
21987;SDS011;11158;53.404;-1.510;2023-05-07T04:03:41;16.88;;;12.80;;
21987;SDS011;11158;53.404;-1.510;2023-05-07T04:06:25;17.10;;;13.73;;
21987;SDS011;11158;53.404;-1.510;2023-05-07T04:09:09;16.55;;;13.23;;
21987;SDS011;11158;53.404;-1.510;2023-05-07T04:11:54;18.15;;;13.48;;
21987;SDS011;11158;53.404;-1.510;2023-05-07T04:14:38;17.38;;;13.30;;
21987;SDS011;11158;53.404;-1.510;2023-05-07T04:17:22;17.92;;;13.30;;
21987;SDS011;11158;53.404;-1.510;2023-05-07T04:20:06;17.40;;;13.60;;
21987;SDS011;11158;53.404;-1.510;2023-05-07T04:22:53;18.75;;;12.98;;
21987;SDS011;11158;53.404;-1.510;2023-05-07T04:25:37;16.65;;;13.25;;
21987;SDS011;11158;53.404;-1.510;2023-05-07T04:28:21;18.27;;;13.65;;
21987;SDS011;11158;53.404;-1.510;2023-05-07T04:31:05;20.52;;;14.95;;
21987;SDS011;11158;53.404;-1.510;2023-05-07T04:33:50;16.38;;;12.93;;
21987;SDS011;11158;53.404;-1.510;2023-05-07T04:36:35;16.48;;;12.90;;
21987;SDS011;11158;53.404;-1.510;2023-05-07T04:39:19;17.60;;;12.90;;
21987;SDS011;11158;53.404;-1.510;2023-05-07T04:42:03;18.00;;;13.50;;
21987;SDS011;11158;53.404;-1.510;2023-05-07T04:44:48;17.55;;;13.65;;
21987;SDS011;11158;53.404;-1.510;2023-05-07T04:47:36;18.10;;;13.50;;
21987;SDS011;11158;53.404;-1.510;2023-05-07T04:50:20;16.92;;;13.63;;
21987;SDS011;11158;53.404;-1.510;2023-05-07T04:53:07;17.58;;;12.98;;
21987;SDS011;11158;53.404;-1.510;2023-05-07T04:55:54;18.95;;;13.50;;
21987;SDS011;11158;53.404;-1.510;2023-05-07T04:58:42;17.17;;;12.93;;
21987;SDS011;11158;53.404;-1.510;2023-05-07T05:01:25;16.15;;;13.07;;
21987;SDS011;11158;53.404;-1.510;2023-05-07T05:04:10;15.70;;;12.27;;
21987;SDS011;11158;53.404;-1.510;2023-05-07T05:06:54;16.23;;;12.27;;
21987;SDS011;11158;53.404;-1.510;2023-05-07T05:09:38;15.77;;;11.63;;
21987;SDS011;11158;53.404;-1.510;2023-05-07T05:12:22;12.77;;;10.18;;
21987;SDS011;11158;53.404;-1.510;2023-05-07T05:15:06;13.40;;;10.40;;
21987;SDS011;11158;53.404;-1.510;2023-05-07T05:17:51;13.93;;;10.32;;
21987;SDS011;11158;53.404;-1.510;2023-05-07T05:20:35;14.80;;;10.13;;
21987;SDS011;11158;53.404;-1.510;2023-05-07T05:23:19;10.93;;;9.27;;
21987;SDS011;11158;53.404;-1.510;2023-05-07T05:26:04;11.07;;;9.68;;
21987;SDS011;11158;53.404;-1.510;2023-05-07T05:28:48;14.18;;;11.10;;
21987;SDS011;11158;53.404;-1.510;2023-05-07T05:31:32;15.15;;;12.10;;
21987;SDS011;11158;53.404;-1.510;2023-05-07T05:34:17;13.95;;;11.07;;
21987;SDS011;11158;53.404;-1.510;2023-05-07T05:37:03;12.70;;;10.68;;
21987;SDS011;11158;53.404;-1.510;2023-05-07T05:39:47;12.98;;;10.85;;
21987;SDS011;11158;53.404;-1.510;2023-05-07T05:42:31;12.00;;;9.68;;
21987;SDS011;11158;53.404;-1.510;2023-05-07T05:45:15;11.43;;;7.38;;
21987;SDS011;11158;53.404;-1.510;2023-05-07T05:47:59;8.52;;;6.95;;
21987;SDS011;11158;53.404;-1.510;2023-05-07T05:50:44;8.95;;;7.30;;
21987;SDS011;11158;53.404;-1.510;2023-05-07T05:53:28;10.70;;;7.60;;
21987;SDS011;11158;53.404;-1.510;2023-05-07T05:56:12;7.88;;;6.93;;
21987;SDS011;11158;53.404;-1.510;2023-05-07T05:58:56;10.10;;;7.30;;
21987;SDS011;11158;53.404;-1.510;2023-05-07T06:01:41;8.13;;;6.68;;
21987;SDS011;11158;53.404;-1.510;2023-05-07T06:04:25;9.65;;;6.50;;
21987;SDS011;11158;53.404;-1.510;2023-05-07T06:07:09;7.05;;;6.28;;
21987;SDS011;11158;53.404;-1.510;2023-05-07T06:09:54;7.13;;;6.35;;
21987;SDS011;11158;53.404;-1.510;2023-05-07T06:12:39;5.93;;;4.82;;
21987;SDS011;11158;53.404;-1.510;2023-05-07T06:15:23;5.80;;;5.10;;
21987;SDS011;11158;53.404;-1.510;2023-05-07T06:18:07;7.72;;;5.78;;
21987;SDS011;11158;53.404;-1.510;2023-05-07T06:20:51;5.72;;;4.85;;
21987;SDS011;11158;53.404;-1.510;2023-05-07T06:23:36;6.35;;;4.97;;
21987;SDS011;11158;53.404;-1.510;2023-05-07T06:26:20;4.70;;;4.30;;
21987;SDS011;11158;53.404;-1.510;2023-05-07T06:29:05;4.72;;;4.32;;
21987;SDS011;11158;53.404;-1.510;2023-05-07T06:31:50;4.82;;;4.32;;
21987;SDS011;11158;53.404;-1.510;2023-05-07T06:34:34;4.80;;;4.32;;
21987;SDS011;11158;53.404;-1.510;2023-05-07T06:37:18;4.22;;;3.83;;
21987;SDS011;11158;53.404;-1.510;2023-05-07T06:40:03;3.65;;;3.35;;
21987;SDS011;11158;53.404;-1.510;2023-05-07T06:42:48;3.72;;;3.35;;
21987;SDS011;11158;53.404;-1.510;2023-05-07T06:45:32;4.68;;;3.25;;
21987;SDS011;11158;53.404;-1.510;2023-05-07T06:48:16;6.82;;;4.82;;
21987;SDS011;11158;53.404;-1.510;2023-05-07T06:51:00;6.82;;;4.65;;
21987;SDS011;11158;53.404;-1.510;2023-05-07T06:53:44;7.35;;;5.22;;
21987;SDS011;11158;53.404;-1.510;2023-05-07T06:56:28;7.20;;;5.40;;
21987;SDS011;11158;53.404;-1.510;2023-05-07T06:59:12;5.63;;;5.10;;
21987;SDS011;11158;53.404;-1.510;2023-05-07T07:01:56;5.60;;;4.80;;
21987;SDS011;11158;53.404;-1.510;2023-05-07T07:04:40;5.07;;;4.60;;
21987;SDS011;11158;53.404;-1.510;2023-05-07T07:07:25;7.03;;;5.32;;
21987;SDS011;11158;53.404;-1.510;2023-05-07T07:10:09;5.35;;;4.85;;
21987;SDS011;11158;53.404;-1.510;2023-05-07T07:12:53;5.85;;;5.22;;
21987;SDS011;11158;53.404;-1.510;2023-05-07T07:15:37;5.90;;;5.30;;
21987;SDS011;11158;53.404;-1.510;2023-05-07T07:18:21;7.53;;;5.70;;
21987;SDS011;11158;53.404;-1.510;2023-05-07T07:21:05;6.47;;;5.05;;
21987;SDS011;11158;53.404;-1.510;2023-05-07T07:23:49;5.97;;;5.22;;
21987;SDS011;11158;53.404;-1.510;2023-05-07T07:26:33;5.35;;;4.85;;
21987;SDS011;11158;53.404;-1.510;2023-05-07T07:29:18;6.28;;;5.68;;
21987;SDS011;11158;53.404;-1.510;2023-05-07T07:32:02;5.75;;;5.07;;
21987;SDS011;11158;53.404;-1.510;2023-05-07T07:34:46;5.90;;;5.30;;
21987;SDS011;11158;53.404;-1.510;2023-05-07T07:37:30;6.38;;;5.50;;
21987;SDS011;11158;53.404;-1.510;2023-05-07T07:40:15;5.68;;;5.07;;
21987;SDS011;11158;53.404;-1.510;2023-05-07T07:42:59;5.95;;;5.10;;
21987;SDS011;11158;53.404;-1.510;2023-05-07T07:45:45;5.45;;;4.85;;
21987;SDS011;11158;53.404;-1.510;2023-05-07T07:48:30;4.95;;;4.45;;
21987;SDS011;11158;53.404;-1.510;2023-05-07T07:51:14;4.45;;;4.05;;
21987;SDS011;11158;53.404;-1.510;2023-05-07T07:53:58;4.70;;;4.30;;
21987;SDS011;11158;53.404;-1.510;2023-05-07T07:56:42;9.57;;;4.47;;
21987;SDS011;11158;53.404;-1.510;2023-05-07T07:59:26;5.10;;;4.07;;
21987;SDS011;11158;53.404;-1.510;2023-05-07T08:02:11;4.63;;;4.22;;
21987;SDS011;11158;53.404;-1.510;2023-05-07T08:04:55;4.75;;;4.32;;
21987;SDS011;11158;53.404;-1.510;2023-05-07T08:07:39;4.40;;;3.97;;
21987;SDS011;11158;53.404;-1.510;2023-05-07T08:10:24;3.67;;;3.38;;
21987;SDS011;11158;53.404;-1.510;2023-05-07T08:13:08;3.05;;;2.75;;
21987;SDS011;11158;53.404;-1.510;2023-05-07T08:15:52;2.63;;;2.30;;
21987;SDS011;11158;53.404;-1.510;2023-05-07T08:18:36;2.53;;;2.33;;
21987;SDS011;11158;53.404;-1.510;2023-05-07T08:21:20;3.10;;;2.83;;
21987;SDS011;11158;53.404;-1.510;2023-05-07T08:24:05;4.88;;;2.85;;
21987;SDS011;11158;53.404;-1.510;2023-05-07T08:26:50;3.35;;;2.58;;
21987;SDS011;11158;53.404;-1.510;2023-05-07T08:29:34;2.75;;;2.55;;
21987;SDS011;11158;53.404;-1.510;2023-05-07T08:32:19;2.67;;;2.47;;
21987;SDS011;11158;53.404;-1.510;2023-05-07T08:35:03;5.20;;;2.83;;
21987;SDS011;11158;53.404;-1.510;2023-05-07T08:37:47;3.30;;;3.00;;
21987;SDS011;11158;53.404;-1.510;2023-05-07T08:40:34;3.10;;;2.80;;
21987;SDS011;11158;53.404;-1.510;2023-05-07T08:43:22;3.05;;;2.40;;
21987;SDS011;11158;53.404;-1.510;2023-05-07T08:46:10;3.38;;;2.80;;
21987;SDS011;11158;53.404;-1.510;2023-05-07T08:49:00;3.05;;;2.67;;
21987;SDS011;11158;53.404;-1.510;2023-05-07T08:51:44;4.53;;;3.03;;
21987;SDS011;11158;53.404;-1.510;2023-05-07T08:54:29;2.20;;;2.00;;
21987;SDS011;11158;53.404;-1.510;2023-05-07T08:57:15;3.72;;;2.83;;
21987;SDS011;11158;53.404;-1.510;2023-05-07T08:59:59;3.15;;;2.53;;
21987;SDS011;11158;53.404;-1.510;2023-05-07T09:02:43;4.28;;;3.33;;
21987;SDS011;11158;53.404;-1.510;2023-05-07T09:05:28;3.20;;;2.90;;
21987;SDS011;11158;53.404;-1.510;2023-05-07T09:08:14;3.90;;;2.75;;
21987;SDS011;11158;53.404;-1.510;2023-05-07T09:10:59;2.15;;;1.95;;
21987;SDS011;11158;53.404;-1.510;2023-05-07T09:13:43;4.07;;;2.45;;
21987;SDS011;11158;53.404;-1.510;2023-05-07T09:16:30;2.38;;;2.17;;
21987;SDS011;11158;53.404;-1.510;2023-05-07T09:19:15;2.17;;;1.75;;
21987;SDS011;11158;53.404;-1.510;2023-05-07T09:21:59;2.45;;;1.90;;
21987;SDS011;11158;53.404;-1.510;2023-05-07T09:24:48;2.95;;;2.28;;
21987;SDS011;11158;53.404;-1.510;2023-05-07T09:27:33;2.47;;;2.17;;
21987;SDS011;11158;53.404;-1.510;2023-05-07T09:30:18;3.30;;;2.38;;
21987;SDS011;11158;53.404;-1.510;2023-05-07T09:33:03;2.95;;;2.33;;
21987;SDS011;11158;53.404;-1.510;2023-05-07T09:35:50;3.88;;;2.47;;
21987;SDS011;11158;53.404;-1.510;2023-05-07T09:38:35;3.95;;;3.35;;
21987;SDS011;11158;53.404;-1.510;2023-05-07T09:41:20;5.57;;;3.65;;
21987;SDS011;11158;53.404;-1.510;2023-05-07T09:44:04;4.10;;;3.70;;
21987;SDS011;11158;53.404;-1.510;2023-05-07T09:46:52;5.60;;;3.80;;
21987;SDS011;11158;53.404;-1.510;2023-05-07T09:49:39;5.22;;;3.53;;
21987;SDS011;11158;53.404;-1.510;2023-05-07T09:52:26;5.03;;;3.53;;
21987;SDS011;11158;53.404;-1.510;2023-05-07T09:55:16;5.55;;;4.03;;
21987;SDS011;11158;53.404;-1.510;2023-05-07T09:58:02;5.72;;;3.20;;
21987;SDS011;11158;53.404;-1.510;2023-05-07T10:00:49;3.67;;;3.00;;
21987;SDS011;11158;53.404;-1.510;2023-05-07T10:03:35;5.68;;;3.30;;
21987;SDS011;11158;53.404;-1.510;2023-05-07T10:06:20;4.55;;;3.20;;
21987;SDS011;11158;53.404;-1.510;2023-05-07T10:09:06;5.15;;;3.33;;
21987;SDS011;11158;53.404;-1.510;2023-05-07T10:11:50;5.10;;;3.17;;
21987;SDS011;11158;53.404;-1.510;2023-05-07T10:14:35;3.58;;;2.60;;
21987;SDS011;11158;53.404;-1.510;2023-05-07T10:17:20;5.57;;;3.13;;
21987;SDS011;11158;53.404;-1.510;2023-05-07T10:20:06;3.55;;;2.90;;
21987;SDS011;11158;53.404;-1.510;2023-05-07T10:22:51;4.07;;;2.72;;
21987;SDS011;11158;53.404;-1.510;2023-05-07T10:25:39;3.58;;;2.50;;
21987;SDS011;11158;53.404;-1.510;2023-05-07T10:28:25;5.68;;;2.92;;
21987;SDS011;11158;53.404;-1.510;2023-05-07T10:31:18;3.50;;;2.63;;
21987;SDS011;11158;53.404;-1.510;2023-05-07T10:34:09;3.67;;;2.80;;
21987;SDS011;11158;53.404;-1.510;2023-05-07T10:39:41;4.00;;;2.97;;
21987;SDS011;11158;53.404;-1.510;2023-05-07T10:42:25;3.80;;;2.60;;
21987;SDS011;11158;53.404;-1.510;2023-05-07T10:45:14;4.40;;;3.13;;
21987;SDS011;11158;53.404;-1.510;2023-05-07T10:48:10;3.00;;;2.70;;
21987;SDS011;11158;53.404;-1.510;2023-05-07T10:56:53;3.55;;;3.08;;
21987;SDS011;11158;53.404;-1.510;2023-05-07T10:59:38;3.78;;;2.60;;
21987;SDS011;11158;53.404;-1.510;2023-05-07T11:05:44;3.53;;;2.60;;
21987;SDS011;11158;53.404;-1.510;2023-05-07T11:08:52;4.00;;;2.78;;
21987;SDS011;11158;53.404;-1.510;2023-05-07T11:11:50;3.90;;;2.53;;
21987;SDS011;11158;53.404;-1.510;2023-05-07T11:14:45;3.78;;;2.30;;
21987;SDS011;11158;53.404;-1.510;2023-05-07T11:17:30;3.33;;;2.22;;
21987;SDS011;11158;53.404;-1.510;2023-05-07T11:20:15;2.67;;;1.83;;
21987;SDS011;11158;53.404;-1.510;2023-05-07T11:23:00;3.40;;;1.90;;
21987;SDS011;11158;53.404;-1.510;2023-05-07T11:25:44;4.05;;;1.60;;
21987;SDS011;11158;53.404;-1.510;2023-05-07T11:28:29;2.25;;;1.77;;
21987;SDS011;11158;53.404;-1.510;2023-05-07T11:31:14;2.35;;;1.45;;
21987;SDS011;11158;53.404;-1.510;2023-05-07T11:34:05;4.20;;;1.80;;
21987;SDS011;11158;53.404;-1.510;2023-05-07T11:36:50;3.20;;;1.80;;
21987;SDS011;11158;53.404;-1.510;2023-05-07T11:39:35;1.77;;;1.50;;
21987;SDS011;11158;53.404;-1.510;2023-05-07T11:42:33;2.30;;;1.60;;
21987;SDS011;11158;53.404;-1.510;2023-05-07T11:45:24;2.63;;;1.52;;
21987;SDS011;11158;53.404;-1.510;2023-05-07T11:48:09;2.08;;;1.45;;
21987;SDS011;11158;53.404;-1.510;2023-05-07T11:50:59;4.22;;;1.45;;
21987;SDS011;11158;53.404;-1.510;2023-05-07T11:53:45;2.23;;;1.20;;
21987;SDS011;11158;53.404;-1.510;2023-05-07T11:56:31;4.00;;;1.40;;
21987;SDS011;11158;53.404;-1.510;2023-05-07T11:59:18;3.60;;;2.08;;
21987;SDS011;11158;53.404;-1.510;2023-05-07T12:02:02;3.10;;;1.30;;
21987;SDS011;11158;53.404;-1.510;2023-05-07T12:04:46;2.60;;;1.17;;
21987;SDS011;11158;53.404;-1.510;2023-05-07T12:07:32;3.15;;;1.50;;
21987;SDS011;11158;53.404;-1.510;2023-05-07T12:10:17;2.05;;;1.27;;
21987;SDS011;11158;53.404;-1.510;2023-05-07T12:13:03;1.95;;;1.30;;
21987;SDS011;11158;53.404;-1.510;2023-05-07T12:16:08;4.78;;;1.85;;
21987;SDS011;11158;53.404;-1.510;2023-05-07T12:18:53;3.08;;;1.55;;
21987;SDS011;11158;53.404;-1.510;2023-05-07T12:21:38;4.50;;;1.42;;
21987;SDS011;11158;53.404;-1.510;2023-05-07T12:24:23;3.40;;;1.70;;
21987;SDS011;11158;53.404;-1.510;2023-05-07T12:27:07;3.75;;;1.40;;
21987;SDS011;11158;53.404;-1.510;2023-05-07T12:29:52;2.28;;;1.20;;
21987;SDS011;11158;53.404;-1.510;2023-05-07T12:32:37;3.17;;;1.40;;
21987;SDS011;11158;53.404;-1.510;2023-05-07T12:35:28;3.72;;;1.60;;
21987;SDS011;11158;53.404;-1.510;2023-05-07T12:38:16;4.43;;;1.55;;
21987;SDS011;11158;53.404;-1.510;2023-05-07T12:41:01;4.07;;;1.30;;
21987;SDS011;11158;53.404;-1.510;2023-05-07T12:43:45;3.78;;;1.60;;
21987;SDS011;11158;53.404;-1.510;2023-05-07T12:46:29;4.95;;;1.73;;
21987;SDS011;11158;53.404;-1.510;2023-05-07T12:49:13;2.88;;;1.52;;
21987;SDS011;11158;53.404;-1.510;2023-05-07T12:51:58;3.42;;;1.20;;
21987;SDS011;11158;53.404;-1.510;2023-05-07T12:54:42;2.58;;;1.10;;
21987;SDS011;11158;53.404;-1.510;2023-05-07T12:57:27;4.28;;;1.85;;
21987;SDS011;11158;53.404;-1.510;2023-05-07T13:00:12;5.35;;;1.63;;
21987;SDS011;11158;53.404;-1.510;2023-05-07T13:02:58;5.57;;;1.48;;
21987;SDS011;11158;53.404;-1.510;2023-05-07T13:05:42;1.65;;;1.20;;
21987;SDS011;11158;53.404;-1.510;2023-05-07T13:08:36;5.85;;;1.90;;
21987;SDS011;11158;53.404;-1.510;2023-05-07T13:11:24;4.75;;;1.55;;
21987;SDS011;11158;53.404;-1.510;2023-05-07T13:14:08;3.88;;;1.60;;
21987;SDS011;11158;53.404;-1.510;2023-05-07T13:16:53;3.08;;;1.40;;
21987;SDS011;11158;53.404;-1.510;2023-05-07T13:19:37;3.97;;;1.73;;
21987;SDS011;11158;53.404;-1.510;2023-05-07T13:22:21;3.75;;;1.10;;
21987;SDS011;11158;53.404;-1.510;2023-05-07T13:25:05;3.95;;;1.42;;
21987;SDS011;11158;53.404;-1.510;2023-05-07T13:27:50;5.35;;;1.70;;
21987;SDS011;11158;53.404;-1.510;2023-05-07T13:30:34;4.78;;;1.67;;
21987;SDS011;11158;53.404;-1.510;2023-05-07T13:33:19;2.67;;;1.20;;
21987;SDS011;11158;53.404;-1.510;2023-05-07T13:36:03;4.00;;;1.23;;
21987;SDS011;11158;53.404;-1.510;2023-05-07T13:38:50;3.65;;;1.60;;
21987;SDS011;11158;53.404;-1.510;2023-05-07T13:41:35;4.88;;;1.60;;
21987;SDS011;11158;53.404;-1.510;2023-05-07T13:44:19;5.18;;;1.65;;
21987;SDS011;11158;53.404;-1.510;2023-05-07T13:47:03;3.78;;;1.15;;
21987;SDS011;11158;53.404;-1.510;2023-05-07T13:49:46;6.07;;;1.70;;
21987;SDS011;11158;53.404;-1.510;2023-05-07T13:52:33;4.72;;;1.42;;
21987;SDS011;11158;53.404;-1.510;2023-05-07T13:55:17;3.30;;;1.20;;
21987;SDS011;11158;53.404;-1.510;2023-05-07T13:58:02;4.43;;;1.25;;
21987;SDS011;11158;53.404;-1.510;2023-05-07T14:00:46;4.65;;;1.52;;
21987;SDS011;11158;53.404;-1.510;2023-05-07T14:03:30;3.25;;;1.23;;
21987;SDS011;11158;53.404;-1.510;2023-05-07T14:06:16;6.28;;;1.73;;
21987;SDS011;11158;53.404;-1.510;2023-05-07T14:09:00;6.32;;;1.60;;
21987;SDS011;11158;53.404;-1.510;2023-05-07T14:11:44;5.00;;;1.30;;
21987;SDS011;11158;53.404;-1.510;2023-05-07T14:14:31;4.20;;;1.45;;
21987;SDS011;11158;53.404;-1.510;2023-05-07T14:17:18;3.60;;;1.33;;
21987;SDS011;11158;53.404;-1.510;2023-05-07T14:20:04;4.45;;;1.17;;
21987;SDS011;11158;53.404;-1.510;2023-05-07T14:22:50;3.65;;;1.45;;
21987;SDS011;11158;53.404;-1.510;2023-05-07T14:25:34;4.90;;;1.33;;
21987;SDS011;11158;53.404;-1.510;2023-05-07T14:28:18;4.97;;;1.40;;
21987;SDS011;11158;53.404;-1.510;2023-05-07T14:31:03;3.58;;;1.30;;
21987;SDS011;11158;53.404;-1.510;2023-05-07T14:33:47;2.58;;;1.20;;
21987;SDS011;11158;53.404;-1.510;2023-05-07T14:36:31;2.65;;;1.23;;
21987;SDS011;11158;53.404;-1.510;2023-05-07T14:39:15;4.00;;;1.60;;
21987;SDS011;11158;53.404;-1.510;2023-05-07T14:41:59;3.45;;;1.45;;
21987;SDS011;11158;53.404;-1.510;2023-05-07T14:44:43;2.65;;;1.20;;
21987;SDS011;11158;53.404;-1.510;2023-05-07T14:47:29;3.50;;;1.25;;
21987;SDS011;11158;53.404;-1.510;2023-05-07T14:50:12;6.13;;;1.55;;
21987;SDS011;11158;53.404;-1.510;2023-05-07T14:52:56;3.13;;;1.27;;
21987;SDS011;11158;53.404;-1.510;2023-05-07T14:55:40;2.45;;;1.10;;
21987;SDS011;11158;53.404;-1.510;2023-05-07T14:58:25;2.97;;;1.17;;
21987;SDS011;11158;53.404;-1.510;2023-05-07T15:01:09;4.10;;;1.27;;
21987;SDS011;11158;53.404;-1.510;2023-05-07T15:03:53;3.80;;;1.20;;
21987;SDS011;11158;53.404;-1.510;2023-05-07T15:06:38;6.13;;;1.58;;
21987;SDS011;11158;53.404;-1.510;2023-05-07T15:09:22;4.88;;;1.73;;
21987;SDS011;11158;53.404;-1.510;2023-05-07T15:12:06;3.28;;;1.52;;
21987;SDS011;11158;53.404;-1.510;2023-05-07T15:14:51;4.88;;;1.88;;
21987;SDS011;11158;53.404;-1.510;2023-05-07T15:17:35;2.55;;;1.60;;
21987;SDS011;11158;53.404;-1.510;2023-05-07T15:20:20;4.65;;;1.77;;
21987;SDS011;11158;53.404;-1.510;2023-05-07T15:23:04;4.40;;;1.77;;
21987;SDS011;11158;53.404;-1.510;2023-05-07T15:25:49;4.78;;;1.80;;
21987;SDS011;11158;53.404;-1.510;2023-05-07T15:28:33;3.38;;;1.40;;
21987;SDS011;11158;53.404;-1.510;2023-05-07T15:31:18;3.22;;;1.50;;
21987;SDS011;11158;53.404;-1.510;2023-05-07T15:34:02;1.80;;;1.50;;
21987;SDS011;11158;53.404;-1.510;2023-05-07T15:36:46;2.03;;;1.33;;
21987;SDS011;11158;53.404;-1.510;2023-05-07T15:39:30;2.33;;;1.52;;
21987;SDS011;11158;53.404;-1.510;2023-05-07T15:42:15;4.15;;;1.60;;
21987;SDS011;11158;53.404;-1.510;2023-05-07T15:45:08;3.88;;;1.85;;
21987;SDS011;11158;53.404;-1.510;2023-05-07T15:47:53;4.25;;;2.17;;
21987;SDS011;11158;53.404;-1.510;2023-05-07T15:50:37;5.95;;;1.63;;
21987;SDS011;11158;53.404;-1.510;2023-05-07T15:53:22;1.67;;;1.50;;
21987;SDS011;11158;53.404;-1.510;2023-05-07T15:56:06;4.20;;;1.80;;
21987;SDS011;11158;53.404;-1.510;2023-05-07T15:58:50;3.13;;;2.13;;
21987;SDS011;11158;53.404;-1.510;2023-05-07T16:01:35;2.28;;;1.65;;
21987;SDS011;11158;53.404;-1.510;2023-05-07T16:04:19;3.67;;;2.30;;
21987;SDS011;11158;53.404;-1.510;2023-05-07T16:07:04;3.50;;;2.05;;
21987;SDS011;11158;53.404;-1.510;2023-05-07T16:10:01;3.72;;;1.48;;
21987;SDS011;11158;53.404;-1.510;2023-05-07T16:12:46;3.95;;;1.25;;
21987;SDS011;11158;53.404;-1.510;2023-05-07T16:15:30;5.70;;;1.40;;
21987;SDS011;11158;53.404;-1.510;2023-05-07T16:18:14;3.33;;;1.83;;
21987;SDS011;11158;53.404;-1.510;2023-05-07T16:20:59;3.10;;;1.20;;
21987;SDS011;11158;53.404;-1.510;2023-05-07T16:23:44;3.70;;;1.42;;